sensor_id;sensor_type;location;lat;lon;timestamp;P1;durP1;ratioP1;P2;durP2;ratioP2
20794;SDS011;28087;-33.874;151.240;2022-07-29T10:59:26;9.68;;;3.30;;
20794;SDS011;28087;-33.874;151.240;2022-07-29T11:02:43;12.63;;;3.28;;
20794;SDS011;28087;-33.874;151.240;2022-07-29T11:05:52;9.52;;;3.50;;
20794;SDS011;28087;-33.874;151.240;2022-07-29T11:09:22;9.30;;;3.30;;
20794;SDS011;28087;-33.874;151.240;2022-07-29T11:19:22;8.63;;;2.78;;
20794;SDS011;28087;-33.874;151.240;2022-07-29T11:22:50;7.72;;;2.92;;
20794;SDS011;28087;-33.874;151.240;2022-07-29T11:26:16;9.18;;;2.70;;
20794;SDS011;28087;-33.874;151.240;2022-07-29T11:29:26;8.00;;;3.53;;
20794;SDS011;28087;-33.874;151.240;2022-07-29T11:32:56;8.73;;;3.45;;
20794;SDS011;28087;-33.874;151.240;2022-07-29T11:36:35;10.77;;;3.22;;
20794;SDS011;28087;-33.874;151.240;2022-07-29T11:40:30;10.07;;;3.22;;
20794;SDS011;28087;-33.874;151.240;2022-07-29T11:43:46;12.07;;;3.22;;
20794;SDS011;28087;-33.874;151.240;2022-07-29T11:47:19;10.52;;;3.30;;
20794;SDS011;28087;-33.874;151.240;2022-07-29T11:50:37;9.60;;;3.55;;
20794;SDS011;28087;-33.874;151.240;2022-07-29T11:54:11;10.30;;;3.15;;
20794;SDS011;28087;-33.874;151.240;2022-07-29T11:57:52;11.05;;;3.55;;
20794;SDS011;28087;-33.874;151.240;2022-07-29T12:01:02;9.23;;;3.53;;
20794;SDS011;28087;-33.874;151.240;2022-07-29T12:04:17;8.68;;;3.08;;
20794;SDS011;28087;-33.874;151.240;2022-07-29T12:12:31;7.88;;;3.17;;
20794;SDS011;28087;-33.874;151.240;2022-07-29T12:15:53;9.95;;;2.95;;
20794;SDS011;28087;-33.874;151.240;2022-07-29T12:18:34;7.85;;;2.75;;
20794;SDS011;28087;-33.874;151.240;2022-07-29T12:31:04;7.28;;;1.70;;
20794;SDS011;28087;-33.874;151.240;2022-07-29T12:34:16;5.40;;;1.80;;
20794;SDS011;28087;-33.874;151.240;2022-07-29T12:37:01;10.27;;;1.80;;
20794;SDS011;28087;-33.874;151.240;2022-07-29T12:40:25;4.00;;;1.20;;
20794;SDS011;28087;-33.874;151.240;2022-07-29T12:43:05;6.38;;;1.15;;
20794;SDS011;28087;-33.874;151.240;2022-07-29T12:45:48;4.68;;;1.50;;
20794;SDS011;28087;-33.874;151.240;2022-07-29T12:48:50;9.45;;;1.30;;
20794;SDS011;28087;-33.874;151.240;2022-07-29T12:51:42;6.40;;;1.38;;
20794;SDS011;28087;-33.874;151.240;2022-07-29T12:54:22;5.65;;;1.30;;
20794;SDS011;28087;-33.874;151.240;2022-07-29T12:57:05;9.68;;;1.48;;
20794;SDS011;28087;-33.874;151.240;2022-07-29T13:00:10;3.30;;;1.05;;
20794;SDS011;28087;-33.874;151.240;2022-07-29T13:02:54;6.70;;;1.30;;
20794;SDS011;28087;-33.874;151.240;2022-07-29T13:05:41;7.30;;;1.60;;
20794;SDS011;28087;-33.874;151.240;2022-07-29T13:08:29;7.70;;;1.27;;
20794;SDS011;28087;-33.874;151.240;2022-07-29T13:11:06;7.82;;;1.27;;
20794;SDS011;28087;-33.874;151.240;2022-07-29T13:19:42;5.47;;;1.10;;
20794;SDS011;28087;-33.874;151.240;2022-07-29T13:23:00;7.20;;;1.33;;
20794;SDS011;28087;-33.874;151.240;2022-07-29T13:25:58;6.28;;;1.00;;
20794;SDS011;28087;-33.874;151.240;2022-07-29T13:28:57;4.93;;;1.20;;
20794;SDS011;28087;-33.874;151.240;2022-07-29T13:31:43;5.43;;;1.05;;
20794;SDS011;28087;-33.874;151.240;2022-07-29T13:34:23;5.28;;;1.00;;
20794;SDS011;28087;-33.874;151.240;2022-07-29T13:37:16;7.30;;;1.30;;
20794;SDS011;28087;-33.874;151.240;2022-07-29T13:39:54;7.35;;;1.05;;
20794;SDS011;28087;-33.874;151.240;2022-07-29T13:42:37;7.55;;;1.33;;
20794;SDS011;28087;-33.874;151.240;2022-07-29T13:45:35;6.78;;;1.35;;
20794;SDS011;28087;-33.874;151.240;2022-07-29T13:48:17;5.35;;;0.93;;
20794;SDS011;28087;-33.874;151.240;2022-07-29T13:54:19;4.63;;;1.13;;
20794;SDS011;28087;-33.874;151.240;2022-07-29T13:56:58;6.20;;;1.40;;
20794;SDS011;28087;-33.874;151.240;2022-07-29T13:59:41;4.57;;;1.25;;
20794;SDS011;28087;-33.874;151.240;2022-07-29T14:02:38;6.80;;;1.52;;
20794;SDS011;28087;-33.874;151.240;2022-07-29T14:05:20;8.57;;;2.00;;
20794;SDS011;28087;-33.874;151.240;2022-07-29T14:07:57;8.25;;;2.20;;
20794;SDS011;28087;-33.874;151.240;2022-07-29T14:10:44;7.63;;;2.40;;
20794;SDS011;28087;-33.874;151.240;2022-07-29T14:13:29;8.07;;;2.35;;
20794;SDS011;28087;-33.874;151.240;2022-07-29T14:16:26;10.90;;;2.65;;
20794;SDS011;28087;-33.874;151.240;2022-07-29T14:19:28;8.80;;;2.70;;
20794;SDS011;28087;-33.874;151.240;2022-07-29T14:22:31;10.35;;;2.80;;
20794;SDS011;28087;-33.874;151.240;2022-07-29T14:25:31;7.43;;;2.70;;
20794;SDS011;28087;-33.874;151.240;2022-07-29T14:28:13;10.50;;;2.80;;
20794;SDS011;28087;-33.874;151.240;2022-07-29T14:30:53;7.95;;;2.50;;
20794;SDS011;28087;-33.874;151.240;2022-07-29T14:33:30;9.18;;;2.50;;
20794;SDS011;28087;-33.874;151.240;2022-07-29T14:36:09;9.25;;;3.03;;
20794;SDS011;28087;-33.874;151.240;2022-07-29T14:38:49;9.18;;;2.60;;
20794;SDS011;28087;-33.874;151.240;2022-07-29T14:41:29;8.23;;;2.40;;
20794;SDS011;28087;-33.874;151.240;2022-07-29T14:44:11;7.68;;;2.30;;
20794;SDS011;28087;-33.874;151.240;2022-07-29T14:46:50;7.55;;;2.50;;
20794;SDS011;28087;-33.874;151.240;2022-07-29T14:49:50;10.20;;;2.85;;
20794;SDS011;28087;-33.874;151.240;2022-07-29T14:53:16;9.70;;;2.60;;
20794;SDS011;28087;-33.874;151.240;2022-07-29T14:55:52;6.60;;;2.30;;
20794;SDS011;28087;-33.874;151.240;2022-07-29T14:59:01;7.47;;;2.70;;
20794;SDS011;28087;-33.874;151.240;2022-07-29T15:01:39;10.93;;;2.97;;
20794;SDS011;28087;-33.874;151.240;2022-07-29T15:04:16;7.57;;;2.40;;
20794;SDS011;28087;-33.874;151.240;2022-07-29T15:07:03;10.35;;;2.70;;
20794;SDS011;28087;-33.874;151.240;2022-07-29T15:09:46;7.65;;;2.38;;
20794;SDS011;28087;-33.874;151.240;2022-07-29T15:12:42;7.03;;;2.38;;
20794;SDS011;28087;-33.874;151.240;2022-07-29T15:15:40;8.13;;;2.58;;
20794;SDS011;28087;-33.874;151.240;2022-07-29T15:18:23;9.80;;;2.70;;
20794;SDS011;28087;-33.874;151.240;2022-07-29T15:21:10;6.88;;;2.22;;
20794;SDS011;28087;-33.874;151.240;2022-07-29T15:23:52;8.13;;;2.35;;
20794;SDS011;28087;-33.874;151.240;2022-07-29T15:26:33;8.85;;;2.42;;
20794;SDS011;28087;-33.874;151.240;2022-07-29T15:29:22;7.20;;;2.42;;
20794;SDS011;28087;-33.874;151.240;2022-07-29T15:32:03;9.52;;;2.78;;
20794;SDS011;28087;-33.874;151.240;2022-07-29T15:35:11;10.23;;;2.40;;
20794;SDS011;28087;-33.874;151.240;2022-07-29T15:37:55;7.47;;;2.40;;
20794;SDS011;28087;-33.874;151.240;2022-07-29T15:40:53;8.35;;;2.30;;
20794;SDS011;28087;-33.874;151.240;2022-07-29T15:43:30;7.95;;;2.67;;
20794;SDS011;28087;-33.874;151.240;2022-07-29T15:46:08;7.72;;;2.38;;
20794;SDS011;28087;-33.874;151.240;2022-07-29T15:49:14;5.65;;;2.40;;
20794;SDS011;28087;-33.874;151.240;2022-07-29T15:52:01;7.95;;;2.53;;
20794;SDS011;28087;-33.874;151.240;2022-07-29T15:54:59;8.13;;;2.30;;
20794;SDS011;28087;-33.874;151.240;2022-07-29T15:57:46;9.45;;;2.30;;
20794;SDS011;28087;-33.874;151.240;2022-07-29T16:00:31;8.00;;;2.13;;
20794;SDS011;28087;-33.874;151.240;2022-07-29T16:03:15;7.13;;;2.25;;
20794;SDS011;28087;-33.874;151.240;2022-07-29T16:06:02;8.32;;;2.40;;
20794;SDS011;28087;-33.874;151.240;2022-07-29T16:08:50;6.25;;;2.30;;
20794;SDS011;28087;-33.874;151.240;2022-07-29T16:11:27;6.72;;;2.17;;
20794;SDS011;28087;-33.874;151.240;2022-07-29T16:14:06;9.00;;;2.35;;
20794;SDS011;28087;-33.874;151.240;2022-07-29T16:16:53;9.05;;;2.30;;
20794;SDS011;28087;-33.874;151.240;2022-07-29T16:19:33;6.90;;;2.22;;
20794;SDS011;28087;-33.874;151.240;2022-07-29T16:22:17;7.20;;;2.38;;
20794;SDS011;28087;-33.874;151.240;2022-07-29T16:28:14;9.65;;;2.13;;
20794;SDS011;28087;-33.874;151.240;2022-07-29T16:31:12;6.70;;;2.00;;
20794;SDS011;28087;-33.874;151.240;2022-07-29T16:34:14;7.95;;;2.20;;
20794;SDS011;28087;-33.874;151.240;2022-07-29T16:37:19;9.07;;;2.20;;
20794;SDS011;28087;-33.874;151.240;2022-07-29T16:40:30;8.65;;;2.30;;
20794;SDS011;28087;-33.874;151.240;2022-07-29T16:43:11;8.35;;;2.25;;
20794;SDS011;28087;-33.874;151.240;2022-07-29T16:46:10;5.90;;;2.13;;
20794;SDS011;28087;-33.874;151.240;2022-07-29T16:48:55;8.23;;;2.15;;
20794;SDS011;28087;-33.874;151.240;2022-07-29T16:51:35;6.57;;;2.10;;
20794;SDS011;28087;-33.874;151.240;2022-07-29T16:54:12;5.97;;;2.00;;
20794;SDS011;28087;-33.874;151.240;2022-07-29T16:57:05;6.13;;;2.50;;
20794;SDS011;28087;-33.874;151.240;2022-07-29T17:00:04;8.70;;;2.45;;
20794;SDS011;28087;-33.874;151.240;2022-07-29T17:02:42;7.88;;;2.35;;
20794;SDS011;28087;-33.874;151.240;2022-07-29T17:05:19;8.18;;;2.53;;
20794;SDS011;28087;-33.874;151.240;2022-07-29T17:08:23;6.63;;;2.50;;
20794;SDS011;28087;-33.874;151.240;2022-07-29T17:11:01;8.30;;;2.30;;
20794;SDS011;28087;-33.874;151.240;2022-07-29T17:13:58;8.73;;;2.53;;
20794;SDS011;28087;-33.874;151.240;2022-07-29T17:16:39;6.38;;;2.20;;
20794;SDS011;28087;-33.874;151.240;2022-07-29T17:19:31;6.50;;;2.15;;
20794;SDS011;28087;-33.874;151.240;2022-07-29T17:25:10;6.55;;;2.22;;
20794;SDS011;28087;-33.874;151.240;2022-07-29T17:27:51;8.45;;;2.20;;
20794;SDS011;28087;-33.874;151.240;2022-07-29T17:30:52;8.98;;;2.33;;
20794;SDS011;28087;-33.874;151.240;2022-07-29T17:33:28;7.50;;;2.40;;
20794;SDS011;28087;-33.874;151.240;2022-07-29T17:36:19;6.50;;;2.40;;
20794;SDS011;28087;-33.874;151.240;2022-07-29T17:39:12;5.32;;;1.98;;
20794;SDS011;28087;-33.874;151.240;2022-07-29T17:41:52;7.13;;;2.03;;
20794;SDS011;28087;-33.874;151.240;2022-07-29T17:44:40;5.47;;;2.03;;
20794;SDS011;28087;-33.874;151.240;2022-07-29T17:47:22;6.35;;;2.00;;
20794;SDS011;28087;-33.874;151.240;2022-07-29T17:50:13;8.23;;;2.25;;
20794;SDS011;28087;-33.874;151.240;2022-07-29T17:53:17;8.90;;;2.45;;
20794;SDS011;28087;-33.874;151.240;2022-07-29T17:55:53;10.05;;;2.10;;
20794;SDS011;28087;-33.874;151.240;2022-07-29T17:58:43;6.55;;;2.22;;
20794;SDS011;28087;-33.874;151.240;2022-07-29T18:01:25;7.35;;;2.25;;
20794;SDS011;28087;-33.874;151.240;2022-07-29T18:04:11;6.53;;;2.10;;
20794;SDS011;28087;-33.874;151.240;2022-07-29T18:06:54;9.30;;;2.03;;
20794;SDS011;28087;-33.874;151.240;2022-07-29T18:09:32;6.50;;;2.00;;
20794;SDS011;28087;-33.874;151.240;2022-07-29T18:12:20;5.68;;;1.98;;
20794;SDS011;28087;-33.874;151.240;2022-07-29T18:15:05;10.50;;;2.30;;
20794;SDS011;28087;-33.874;151.240;2022-07-29T18:17:42;7.78;;;2.22;;
20794;SDS011;28087;-33.874;151.240;2022-07-29T18:20:45;5.35;;;2.00;;
20794;SDS011;28087;-33.874;151.240;2022-07-29T18:24:13;6.75;;;2.60;;
20794;SDS011;28087;-33.874;151.240;2022-07-29T18:27:03;9.55;;;2.38;;
20794;SDS011;28087;-33.874;151.240;2022-07-29T18:29:39;8.60;;;2.15;;
20794;SDS011;28087;-33.874;151.240;2022-07-29T18:32:58;8.02;;;2.40;;
20794;SDS011;28087;-33.874;151.240;2022-07-29T18:36:00;8.27;;;2.28;;
20794;SDS011;28087;-33.874;151.240;2022-07-29T18:41:54;7.78;;;2.40;;
20794;SDS011;28087;-33.874;151.240;2022-07-29T18:44:30;7.25;;;2.20;;
20794;SDS011;28087;-33.874;151.240;2022-07-29T18:47:32;5.72;;;2.17;;
20794;SDS011;28087;-33.874;151.240;2022-07-29T18:50:29;9.90;;;2.20;;
20794;SDS011;28087;-33.874;151.240;2022-07-29T18:53:07;8.63;;;2.10;;
20794;SDS011;28087;-33.874;151.240;2022-07-29T18:58:40;6.00;;;2.03;;
20794;SDS011;28087;-33.874;151.240;2022-07-29T19:01:31;7.80;;;2.22;;
20794;SDS011;28087;-33.874;151.240;2022-07-29T19:04:17;6.88;;;2.30;;
20794;SDS011;28087;-33.874;151.240;2022-07-29T19:07:01;8.73;;;2.25;;
20794;SDS011;28087;-33.874;151.240;2022-07-29T19:09:48;6.25;;;2.10;;
20794;SDS011;28087;-33.874;151.240;2022-07-29T19:12:34;5.93;;;2.10;;
20794;SDS011;28087;-33.874;151.240;2022-07-29T19:15:13;8.40;;;2.00;;
20794;SDS011;28087;-33.874;151.240;2022-07-29T19:18:00;9.45;;;2.35;;
20794;SDS011;28087;-33.874;151.240;2022-07-29T19:20:45;6.53;;;2.30;;
20794;SDS011;28087;-33.874;151.240;2022-07-29T19:23:48;6.25;;;2.10;;
20794;SDS011;28087;-33.874;151.240;2022-07-29T19:26:54;6.15;;;2.17;;
20794;SDS011;28087;-33.874;151.240;2022-07-29T19:29:34;8.93;;;2.40;;
20794;SDS011;28087;-33.874;151.240;2022-07-29T19:32:12;7.30;;;1.95;;
20794;SDS011;28087;-33.874;151.240;2022-07-29T19:34:55;5.20;;;2.20;;
20794;SDS011;28087;-33.874;151.240;2022-07-29T19:37:48;8.30;;;2.17;;
20794;SDS011;28087;-33.874;151.240;2022-07-29T19:40:31;7.75;;;2.10;;
20794;SDS011;28087;-33.874;151.240;2022-07-29T19:46:29;6.47;;;1.90;;
20794;SDS011;28087;-33.874;151.240;2022-07-29T19:49:12;6.43;;;2.00;;
20794;SDS011;28087;-33.874;151.240;2022-07-29T19:51:56;5.55;;;2.10;;
20794;SDS011;28087;-33.874;151.240;2022-07-29T19:54:52;7.05;;;2.22;;
20794;SDS011;28087;-33.874;151.240;2022-07-29T19:57:52;6.03;;;1.90;;
20794;SDS011;28087;-33.874;151.240;2022-07-29T20:01:01;5.70;;;1.80;;
20794;SDS011;28087;-33.874;151.240;2022-07-29T20:03:59;6.53;;;1.95;;
20794;SDS011;28087;-33.874;151.240;2022-07-29T20:06:35;6.28;;;1.90;;
20794;SDS011;28087;-33.874;151.240;2022-07-29T20:09:24;5.22;;;1.55;;
20794;SDS011;28087;-33.874;151.240;2022-07-29T20:12:04;6.97;;;1.90;;
20794;SDS011;28087;-33.874;151.240;2022-07-29T20:14:43;9.90;;;2.13;;
20794;SDS011;28087;-33.874;151.240;2022-07-29T20:17:21;8.73;;;2.00;;
20794;SDS011;28087;-33.874;151.240;2022-07-29T20:20:11;9.15;;;1.70;;
20794;SDS011;28087;-33.874;151.240;2022-07-29T20:22:53;5.85;;;1.73;;
20794;SDS011;28087;-33.874;151.240;2022-07-29T20:25:32;5.38;;;1.60;;
20794;SDS011;28087;-33.874;151.240;2022-07-29T20:28:09;5.75;;;1.80;;
20794;SDS011;28087;-33.874;151.240;2022-07-29T20:34:30;7.55;;;2.00;;
20794;SDS011;28087;-33.874;151.240;2022-07-29T20:37:08;5.43;;;1.67;;
20794;SDS011;28087;-33.874;151.240;2022-07-29T20:39:58;7.13;;;1.73;;
20794;SDS011;28087;-33.874;151.240;2022-07-29T20:42:56;6.35;;;1.70;;
20794;SDS011;28087;-33.874;151.240;2022-07-29T20:45:41;6.53;;;1.83;;
20794;SDS011;28087;-33.874;151.240;2022-07-29T20:48:27;6.63;;;1.70;;
20794;SDS011;28087;-33.874;151.240;2022-07-29T20:51:08;6.57;;;1.77;;
20794;SDS011;28087;-33.874;151.240;2022-07-29T20:53:48;8.73;;;1.67;;
20794;SDS011;28087;-33.874;151.240;2022-07-29T20:56:29;6.47;;;2.00;;
20794;SDS011;28087;-33.874;151.240;2022-07-29T20:59:07;7.30;;;1.70;;
20794;SDS011;28087;-33.874;151.240;2022-07-29T21:01:45;5.57;;;1.88;;
20794;SDS011;28087;-33.874;151.240;2022-07-29T21:04:22;9.80;;;1.92;;
20794;SDS011;28087;-33.874;151.240;2022-07-29T21:07:03;6.22;;;1.70;;
20794;SDS011;28087;-33.874;151.240;2022-07-29T21:09:42;7.03;;;1.90;;
20794;SDS011;28087;-33.874;151.240;2022-07-29T21:12:45;5.28;;;1.85;;
20794;SDS011;28087;-33.874;151.240;2022-07-29T21:15:36;5.00;;;1.50;;
20794;SDS011;28087;-33.874;151.240;2022-07-29T21:19:05;5.75;;;1.60;;
20794;SDS011;28087;-33.874;151.240;2022-07-29T21:21:48;6.15;;;1.48;;
20794;SDS011;28087;-33.874;151.240;2022-07-29T21:24:30;5.80;;;2.05;;
20794;SDS011;28087;-33.874;151.240;2022-07-29T21:27:09;4.95;;;1.60;;
20794;SDS011;28087;-33.874;151.240;2022-07-29T21:30:02;8.73;;;1.75;;
20794;SDS011;28087;-33.874;151.240;2022-07-29T21:33:18;6.13;;;1.70;;
20794;SDS011;28087;-33.874;151.240;2022-07-29T21:35:56;4.47;;;1.50;;
20794;SDS011;28087;-33.874;151.240;2022-07-29T21:39:25;7.22;;;1.80;;
20794;SDS011;28087;-33.874;151.240;2022-07-29T21:42:09;5.03;;;2.00;;
20794;SDS011;28087;-33.874;151.240;2022-07-29T21:44:47;7.63;;;1.90;;
20794;SDS011;28087;-33.874;151.240;2022-07-29T21:47:30;5.80;;;2.03;;
20794;SDS011;28087;-33.874;151.240;2022-07-29T21:50:13;6.55;;;2.00;;
20794;SDS011;28087;-33.874;151.240;2022-07-29T21:53:10;5.15;;;1.70;;
20794;SDS011;28087;-33.874;151.240;2022-07-29T21:56:00;9.70;;;2.28;;
20794;SDS011;28087;-33.874;151.240;2022-07-29T21:59:03;5.38;;;1.92;;
20794;SDS011;28087;-33.874;151.240;2022-07-29T22:02:00;7.25;;;1.80;;
20794;SDS011;28087;-33.874;151.240;2022-07-29T22:04:49;7.25;;;2.30;;
20794;SDS011;28087;-33.874;151.240;2022-07-29T22:07:31;6.13;;;2.05;;
20794;SDS011;28087;-33.874;151.240;2022-07-29T22:10:37;8.05;;;2.00;;
20794;SDS011;28087;-33.874;151.240;2022-07-29T22:13:15;7.03;;;2.10;;
20794;SDS011;28087;-33.874;151.240;2022-07-29T22:16:00;7.90;;;2.25;;
20794;SDS011;28087;-33.874;151.240;2022-07-29T22:18:40;7.50;;;2.25;;
20794;SDS011;28087;-33.874;151.240;2022-07-29T22:22:01;6.65;;;2.20;;
20794;SDS011;28087;-33.874;151.240;2022-07-29T22:24:38;8.85;;;2.38;;
20794;SDS011;28087;-33.874;151.240;2022-07-29T22:27:22;7.50;;;2.35;;
20794;SDS011;28087;-33.874;151.240;2022-07-29T22:30:09;6.40;;;2.30;;
20794;SDS011;28087;-33.874;151.240;2022-07-29T22:32:48;9.10;;;2.40;;
20794;SDS011;28087;-33.874;151.240;2022-07-29T22:35:29;7.15;;;2.35;;
20794;SDS011;28087;-33.874;151.240;2022-07-29T22:38:12;7.45;;;2.30;;
20794;SDS011;28087;-33.874;151.240;2022-07-29T22:40:50;7.80;;;2.03;;
20794;SDS011;28087;-33.874;151.240;2022-07-29T22:43:30;7.25;;;2.50;;
20794;SDS011;28087;-33.874;151.240;2022-07-29T22:46:25;9.57;;;2.65;;
20794;SDS011;28087;-33.874;151.240;2022-07-29T22:49:10;9.93;;;2.80;;
20794;SDS011;28087;-33.874;151.240;2022-07-29T22:51:56;7.95;;;2.60;;
20794;SDS011;28087;-33.874;151.240;2022-07-29T22:54:41;7.60;;;2.70;;
20794;SDS011;28087;-33.874;151.240;2022-07-29T22:57:22;8.27;;;2.45;;
20794;SDS011;28087;-33.874;151.240;2022-07-29T23:00:13;8.50;;;2.50;;
20794;SDS011;28087;-33.874;151.240;2022-07-29T23:02:58;10.93;;;2.95;;
20794;SDS011;28087;-33.874;151.240;2022-07-29T23:05:40;8.00;;;2.60;;
20794;SDS011;28087;-33.874;151.240;2022-07-29T23:08:27;8.02;;;2.97;;
20794;SDS011;28087;-33.874;151.240;2022-07-29T23:11:06;7.32;;;2.72;;
20794;SDS011;28087;-33.874;151.240;2022-07-29T23:13:46;7.05;;;2.58;;
20794;SDS011;28087;-33.874;151.240;2022-07-29T23:16:26;6.47;;;2.30;;
20794;SDS011;28087;-33.874;151.240;2022-07-29T23:19:16;9.00;;;2.58;;
20794;SDS011;28087;-33.874;151.240;2022-07-29T23:22:01;7.53;;;2.45;;
20794;SDS011;28087;-33.874;151.240;2022-07-29T23:24:44;9.10;;;2.67;;
20794;SDS011;28087;-33.874;151.240;2022-07-29T23:27:26;9.18;;;2.80;;
20794;SDS011;28087;-33.874;151.240;2022-07-29T23:30:33;11.68;;;2.97;;
20794;SDS011;28087;-33.874;151.240;2022-07-29T23:33:09;7.97;;;2.35;;
20794;SDS011;28087;-33.874;151.240;2022-07-29T23:35:52;10.45;;;3.00;;
20794;SDS011;28087;-33.874;151.240;2022-07-29T23:38:58;10.63;;;2.78;;
20794;SDS011;28087;-33.874;151.240;2022-07-29T23:41:43;10.55;;;3.00;;
20794;SDS011;28087;-33.874;151.240;2022-07-29T23:44:29;7.82;;;2.63;;
20794;SDS011;28087;-33.874;151.240;2022-07-29T23:47:34;9.48;;;3.03;;
20794;SDS011;28087;-33.874;151.240;2022-07-29T23:50:18;9.80;;;2.97;;
20794;SDS011;28087;-33.874;151.240;2022-07-29T23:53:00;11.93;;;3.25;;
20794;SDS011;28087;-33.874;151.240;2022-07-29T23:55:45;7.22;;;2.45;;
20794;SDS011;28087;-33.874;151.240;2022-07-29T23:58:21;7.95;;;2.42;;
